createdAt,value
2019-05-06T00:00:13.961Z,10.20
2019-05-06T00:02:43.577Z,10.80
2019-05-06T00:05:14.282Z,9.83
2019-05-06T00:07:44.535Z,9.73
2019-05-06T00:10:25.112Z,10.60
2019-05-06T00:12:54.502Z,10.90
2019-05-06T00:15:23.525Z,10.23
2019-05-06T00:17:53.924Z,10.60
2019-05-06T00:20:24.336Z,10.37
2019-05-06T00:22:54.669Z,10.63
2019-05-06T00:25:40.909Z,10.80
2019-05-06T00:28:24.423Z,10.27
2019-05-06T00:31:08.603Z,10.43
2019-05-06T00:33:24.802Z,11.00
2019-05-06T00:35:53.867Z,10.93
2019-05-06T00:38:24.478Z,10.40
2019-05-06T00:40:59.889Z,10.77
2019-05-06T00:43:28.356Z,10.70
2019-05-06T00:45:56.732Z,10.60
2019-05-06T00:48:25.176Z,11.17
2019-05-06T00:50:53.737Z,10.87
2019-05-06T00:53:23.980Z,11.17
2019-05-06T00:55:53.773Z,10.93
2019-05-06T00:58:23.905Z,10.17
2019-05-06T01:00:53.884Z,10.90
2019-05-06T01:03:23.917Z,10.97
2019-05-06T01:05:54.173Z,10.40
2019-05-06T01:08:24.063Z,10.30
2019-05-06T01:10:54.436Z,10.90
2019-05-06T01:13:27.252Z,10.37
2019-05-06T01:15:55.704Z,10.67
2019-05-06T01:18:24.528Z,11.30
2019-05-06T01:20:54.850Z,11.03
2019-05-06T01:23:23.642Z,10.53
2019-05-06T01:25:52.091Z,10.87
2019-05-06T01:28:20.863Z,10.40
2019-05-06T01:30:49.269Z,10.60
2019-05-06T01:33:17.923Z,10.90
2019-05-06T01:35:46.638Z,11.03
2019-05-06T01:38:25.637Z,11.13
2019-05-06T01:41:13.640Z,10.20
2019-05-06T01:43:43.948Z,10.83
2019-05-06T01:46:14.016Z,11.10
2019-05-06T01:48:48.489Z,10.70
2019-05-06T01:51:18.503Z,10.80
2019-05-06T01:53:47.357Z,11.00
2019-05-06T01:56:15.898Z,10.33
2019-05-06T01:58:44.398Z,11.10
2019-05-06T02:01:14.767Z,10.80
2019-05-06T02:03:44.359Z,10.83
2019-05-06T02:06:14.074Z,11.00
2019-05-06T02:08:44.818Z,11.27
2019-05-06T02:11:14.895Z,10.60
2019-05-06T02:13:44.271Z,10.80
2019-05-06T02:16:14.804Z,11.30
2019-05-06T02:18:44.881Z,11.60
2019-05-06T02:21:30.473Z,11.23
2019-05-06T02:24:13.515Z,11.10
2019-05-06T02:26:43.625Z,11.33
2019-05-06T02:29:29.099Z,11.47
2019-05-06T02:32:24.835Z,10.73
2019-05-06T02:34:47.431Z,10.80
2019-05-06T02:37:34.954Z,10.50
2019-05-06T02:40:05.433Z,11.50
2019-05-06T02:42:34.095Z,11.37
2019-05-06T02:45:03.983Z,11.00
2019-05-06T02:47:42.731Z,11.17
2019-05-06T02:50:13.239Z,11.47
2019-05-06T02:52:44.128Z,10.70
2019-05-06T02:55:13.106Z,11.63
2019-05-06T02:57:44.012Z,11.50
2019-05-06T03:00:16.630Z,12.03
2019-05-06T03:02:48.119Z,12.00
2019-05-06T03:05:15.178Z,11.20
2019-05-06T03:07:43.836Z,11.10
2019-05-06T03:10:16.328Z,11.10
2019-05-06T03:12:44.841Z,12.37
2019-05-06T03:15:16.598Z,11.47
2019-05-06T03:17:43.771Z,11.87
2019-05-06T03:20:15.699Z,11.50
2019-05-06T03:22:54.717Z,11.63
2019-05-06T03:25:25.102Z,11.33
2019-05-06T03:27:53.490Z,11.50
2019-05-06T03:30:25.652Z,11.90
2019-05-06T03:33:27.672Z,11.27
2019-05-06T03:35:40.431Z,12.13
2019-05-06T03:37:53.428Z,11.90
2019-05-06T03:40:23.063Z,13.87
2019-05-06T03:42:53.968Z,11.37
2019-05-06T03:45:26.674Z,12.03
2019-05-06T03:47:56.698Z,11.60
2019-05-06T03:50:25.093Z,11.80
2019-05-06T03:52:56.460Z,11.37
2019-05-06T03:55:24.035Z,11.70
2019-05-06T03:57:54.059Z,12.67
2019-05-06T04:00:23.751Z,11.93
2019-05-06T04:02:53.568Z,11.47
2019-05-06T04:05:23.781Z,12.27
2019-05-06T04:07:53.884Z,12.20
2019-05-06T04:10:22.992Z,12.00
2019-05-06T04:12:53.431Z,11.33
2019-05-06T04:15:22.977Z,11.73
2019-05-06T04:17:54.359Z,12.43
2019-05-06T04:20:40.046Z,11.73
2019-05-06T04:23:16.617Z,11.70
2019-05-06T04:26:03.599Z,12.70
2019-05-06T04:28:34.308Z,11.53
2019-05-06T04:31:03.077Z,11.93
2019-05-06T04:33:33.187Z,12.60
2019-05-06T04:36:03.584Z,12.23
2019-05-06T04:38:33.693Z,12.03
2019-05-06T04:41:02.914Z,13.00
2019-05-06T04:43:33.626Z,13.60
2019-05-06T04:46:03.177Z,12.37
2019-05-06T04:48:33.028Z,13.83
2019-05-06T04:51:03.324Z,12.50
2019-05-06T04:53:33.694Z,12.47
2019-05-06T04:56:03.861Z,12.83
2019-05-06T04:58:33.539Z,12.00
2019-05-06T05:01:04.033Z,12.50
2019-05-06T05:03:33.686Z,12.20
2019-05-06T05:06:05.613Z,11.97
2019-05-06T05:08:39.293Z,11.90
2019-05-06T05:11:12.801Z,12.30
2019-05-06T05:13:53.241Z,12.27
2019-05-06T05:16:33.145Z,12.00
2019-05-06T05:19:06.123Z,12.20
2019-05-06T05:21:34.594Z,10.90
2019-05-06T05:24:03.040Z,11.80
2019-05-06T05:26:32.260Z,11.57
2019-05-06T05:29:02.857Z,12.47
2019-05-06T05:31:33.121Z,11.97
2019-05-06T05:34:02.168Z,11.90
2019-05-06T05:36:32.757Z,12.30
2019-05-06T05:39:03.224Z,12.10
2019-05-06T05:41:33.124Z,11.00
2019-05-06T05:44:06.869Z,12.70
2019-05-06T05:46:35.334Z,11.70
2019-05-06T05:49:08.164Z,11.87
2019-05-06T05:51:36.691Z,11.10
2019-05-06T05:54:05.131Z,11.70
2019-05-06T05:56:33.610Z,11.17
2019-05-06T05:59:03.335Z,11.57
2019-05-06T06:01:32.778Z,11.83
2019-05-06T06:04:03.157Z,11.17
2019-05-06T06:06:33.139Z,10.70
2019-05-06T06:09:03.050Z,11.53
2019-05-06T06:11:39.671Z,11.87
2019-05-06T06:14:26.318Z,10.90
2019-05-06T06:17:13.013Z,11.20
2019-05-06T06:19:54.338Z,12.30
2019-05-06T06:22:24.538Z,11.03
2019-05-06T06:24:53.454Z,11.67
2019-05-06T06:27:22.404Z,12.20
2019-05-06T06:29:52.759Z,10.77
2019-05-06T06:32:23.332Z,10.60
2019-05-06T06:37:43.125Z,11.17
2019-05-06T06:40:13.494Z,10.90
2019-05-06T06:42:42.729Z,10.60
2019-05-06T06:45:12.279Z,10.53
2019-05-06T06:47:42.543Z,25.90
2019-05-06T06:50:12.552Z,11.70
2019-05-06T06:52:42.178Z,11.00
2019-05-06T06:55:12.948Z,11.10
2019-05-06T06:57:52.380Z,10.53
2019-05-06T07:00:22.444Z,10.67
2019-05-06T07:02:52.610Z,11.17
2019-05-06T07:05:28.289Z,10.97
2019-05-06T07:07:55.768Z,10.33
2019-05-06T07:10:43.023Z,10.30
2019-05-06T07:13:13.285Z,10.90
2019-05-06T07:15:42.638Z,11.00
2019-05-06T07:18:13.526Z,11.03
2019-05-06T07:20:43.414Z,10.40
2019-05-06T07:23:24.828Z,10.30
2019-05-06T07:25:54.436Z,9.57
2019-05-06T07:28:23.924Z,10.70
2019-05-06T07:30:53.017Z,10.20
2019-05-06T07:33:22.915Z,10.37
2019-05-06T07:35:53.077Z,10.03
2019-05-06T07:38:23.051Z,10.30
2019-05-06T07:41:04.635Z,9.40
2019-05-06T07:43:42.047Z,9.97
2019-05-06T07:46:23.535Z,9.77
2019-05-06T07:48:52.024Z,10.20
2019-05-06T07:51:20.373Z,9.90
2019-05-06T07:53:48.783Z,10.30
2019-05-06T07:56:17.195Z,9.63
2019-05-06T07:58:45.756Z,10.30
2019-05-06T08:01:14.297Z,10.23
2019-05-06T08:03:43.028Z,10.10
2019-05-06T08:06:13.176Z,10.80
2019-05-06T08:08:43.289Z,10.00
2019-05-06T08:11:12.441Z,10.60
2019-05-06T08:13:43.186Z,9.83
2019-05-06T08:16:13.079Z,10.20
2019-05-06T08:18:42.521Z,9.70
2019-05-06T08:21:16.115Z,9.30
2019-05-06T08:23:46.250Z,9.90
2019-05-06T08:26:17.576Z,9.70
2019-05-06T08:28:45.145Z,10.00
2019-05-06T08:31:14.182Z,9.70
2019-05-06T08:33:43.215Z,9.40
2019-05-06T08:36:15.019Z,9.63
2019-05-06T08:38:56.149Z,9.67
2019-05-06T08:41:25.582Z,9.20
2019-05-06T08:43:54.053Z,9.70
2019-05-06T08:46:23.464Z,10.00
2019-05-06T08:48:52.755Z,9.63
2019-05-06T08:51:25.964Z,9.90
2019-05-06T08:53:58.949Z,10.00
2019-05-06T08:56:27.351Z,9.70
2019-05-06T08:58:56.125Z,9.50
2019-05-06T09:01:42.662Z,9.73
2019-05-06T09:04:13.670Z,9.47
2019-05-06T09:06:43.159Z,9.63
2019-05-06T09:09:13.052Z,10.00
2019-05-06T09:11:43.166Z,9.80
2019-05-06T09:14:13.700Z,9.57
2019-05-06T09:16:43.770Z,9.47
2019-05-06T09:19:12.924Z,9.60
2019-05-06T09:21:45.712Z,9.53
2019-05-06T09:24:12.865Z,9.33
2019-05-06T09:26:52.359Z,9.20
2019-05-06T09:29:28.208Z,9.53
2019-05-06T09:32:04.337Z,9.60
2019-05-06T09:34:34.785Z,9.27
2019-05-06T09:37:16.486Z,9.60
2019-05-06T09:39:46.093Z,9.73
2019-05-06T09:42:15.038Z,9.50
2019-05-06T09:44:45.146Z,9.23
2019-05-06T09:47:18.591Z,10.23
2019-05-06T09:49:48.794Z,9.40
2019-05-06T09:52:17.607Z,9.60
2019-05-06T09:55:04.307Z,9.87
2019-05-06T09:57:52.215Z,9.60
2019-05-06T10:00:23.591Z,9.93
2019-05-06T10:02:52.693Z,9.30
2019-05-06T10:05:21.443Z,9.73
2019-05-06T10:07:49.988Z,9.80
2019-05-06T10:10:18.432Z,8.93
2019-05-06T10:12:47.126Z,9.60
2019-05-06T10:15:15.999Z,9.70
2019-05-06T10:17:44.447Z,11.20
2019-05-06T10:20:12.902Z,9.23
2019-05-06T10:22:43.036Z,9.33
2019-05-06T10:25:13.382Z,9.60
2019-05-06T10:27:43.507Z,9.57
2019-05-06T10:30:13.651Z,9.70
2019-05-06T10:32:49.349Z,9.33
2019-05-06T10:35:19.055Z,9.67
2019-05-06T10:38:03.040Z,9.67
2019-05-06T10:40:59.680Z,9.80
2019-05-06T10:43:43.140Z,9.40
2019-05-06T10:46:13.195Z,9.37
2019-05-06T10:48:42.411Z,9.30
2019-05-06T10:51:14.234Z,9.60
2019-05-06T10:53:42.807Z,9.97
2019-05-06T10:56:28.011Z,9.30
2019-05-06T10:58:58.177Z,10.00
2019-05-06T11:01:28.262Z,9.17
2019-05-06T11:03:57.357Z,9.50
2019-05-06T11:06:25.731Z,9.37
2019-05-06T11:08:54.197Z,9.43
2019-05-06T11:11:32.617Z,9.53
2019-05-06T11:13:53.253Z,10.00
2019-05-06T11:16:23.648Z,9.30
2019-05-06T11:18:53.498Z,9.37
2019-05-06T11:21:22.641Z,9.20
2019-05-06T11:23:52.719Z,8.90
2019-05-06T11:26:23.566Z,9.40
2019-05-06T11:28:56.206Z,9.40
2019-05-06T11:31:34.774Z,9.20
2019-05-06T11:34:23.241Z,9.80
2019-05-06T11:36:53.703Z,9.50
2019-05-06T11:39:23.357Z,9.53
2019-05-06T11:42:06.271Z,9.23
2019-05-06T11:44:24.003Z,9.10
2019-05-06T11:46:52.527Z,9.90
2019-05-06T11:49:23.274Z,9.50
2019-05-06T11:51:51.526Z,10.00
2019-05-06T11:54:23.556Z,8.80
2019-05-06T11:56:55.117Z,9.40
2019-05-06T11:59:22.617Z,9.60
2019-05-06T12:01:53.592Z,9.63
2019-05-06T12:04:23.021Z,9.20
2019-05-06T12:06:52.603Z,8.87
2019-05-06T12:09:22.384Z,9.17
2019-05-06T12:11:52.886Z,9.37
2019-05-06T12:14:22.688Z,9.90
2019-05-06T12:16:54.845Z,9.60
2019-05-06T12:19:22.528Z,9.30
2019-05-06T12:21:51.252Z,9.50
2019-05-06T12:24:19.795Z,9.77
2019-05-06T12:26:48.174Z,9.70
2019-05-06T12:29:16.557Z,9.57
2019-05-06T12:31:46.581Z,9.23
2019-05-06T12:34:14.960Z,9.73
2019-05-06T12:36:43.695Z,10.07
2019-05-06T12:39:18.477Z,9.03
2019-05-06T12:41:57.418Z,9.10
2019-05-06T12:44:25.783Z,9.43
2019-05-06T12:46:59.482Z,9.30
2019-05-06T12:49:26.075Z,9.70
2019-05-06T12:51:54.524Z,9.33
2019-05-06T12:54:22.997Z,10.03
2019-05-06T12:56:52.795Z,10.00
2019-05-06T12:59:22.316Z,9.70
2019-05-06T13:01:53.768Z,9.80
2019-05-06T13:04:44.519Z,10.13
2019-05-06T13:06:52.171Z,9.77
2019-05-06T13:09:22.544Z,9.90
2019-05-06T13:11:52.376Z,9.53
2019-05-06T13:14:22.363Z,10.27
2019-05-06T13:16:53.216Z,9.30
2019-05-06T13:19:22.891Z,9.80
2019-05-06T13:21:51.473Z,9.37
2019-05-06T13:24:19.953Z,9.10
2019-05-06T13:26:49.305Z,9.63
2019-05-06T13:29:22.679Z,9.43
2019-05-06T13:31:53.039Z,10.00
2019-05-06T13:34:23.455Z,9.70
2019-05-06T13:36:53.270Z,9.40
2019-05-06T13:39:23.713Z,9.37
2019-05-06T13:41:52.875Z,9.50
2019-05-06T13:44:22.747Z,9.00
2019-05-06T13:46:53.268Z,9.10
2019-05-06T13:49:26.298Z,9.23
2019-05-06T13:52:04.388Z,8.97
2019-05-06T13:54:32.786Z,9.30
2019-05-06T13:57:02.960Z,9.30
2019-05-06T13:59:34.762Z,9.50
2019-05-06T14:02:07.528Z,9.40
2019-05-06T14:04:36.327Z,9.37
2019-05-06T14:07:07.453Z,9.63
2019-05-06T14:09:39.918Z,9.70
2019-05-06T14:12:05.201Z,9.90
2019-05-06T14:14:33.722Z,9.67
2019-05-06T14:17:02.558Z,9.80
2019-05-06T14:19:33.220Z,9.50
2019-05-06T14:22:03.033Z,9.20
2019-05-06T14:24:32.780Z,10.20
2019-05-06T14:27:08.801Z,9.90
2019-05-06T14:29:44.620Z,9.40
2019-05-06T14:32:14.888Z,9.40
2019-05-06T14:34:43.609Z,10.13
2019-05-06T14:37:12.208Z,9.90
2019-05-06T14:39:53.290Z,10.00
2019-05-06T14:42:12.890Z,10.20
2019-05-06T14:44:43.102Z,10.20
2019-05-06T14:47:13.154Z,9.77
2019-05-06T14:49:43.155Z,10.10
2019-05-06T14:52:13.245Z,9.67
2019-05-06T14:54:49.472Z,10.00
2019-05-06T14:57:18.823Z,9.73
2019-05-06T14:59:50.835Z,9.90
2019-05-06T15:02:19.511Z,9.57
2019-05-06T15:04:47.940Z,9.43
2019-05-06T15:07:16.452Z,9.27
2019-05-06T15:09:55.879Z,9.97
2019-05-06T15:12:15.025Z,10.77
2019-05-06T15:14:43.466Z,9.80
2019-05-06T15:17:14.228Z,10.57
2019-05-06T15:19:42.899Z,9.80
2019-05-06T15:22:13.008Z,9.83
2019-05-06T15:24:42.656Z,10.17
2019-05-06T15:27:11.962Z,9.80
2019-05-06T15:29:42.303Z,10.00
2019-05-06T15:32:24.050Z,10.13
2019-05-06T15:35:09.503Z,9.80
2019-05-06T15:37:42.691Z,9.43
2019-05-06T15:40:12.167Z,10.00
2019-05-06T15:42:42.489Z,9.80
2019-05-06T15:45:12.601Z,9.87
2019-05-06T15:47:42.626Z,10.00
2019-05-06T15:50:12.767Z,10.20
2019-05-06T15:52:43.490Z,10.20
2019-05-06T15:55:12.229Z,10.30
2019-05-06T15:57:43.280Z,9.93
2019-05-06T16:00:13.041Z,10.03
2019-05-06T16:02:42.031Z,10.50
2019-05-06T16:05:13.903Z,9.80
2019-05-06T16:07:43.156Z,10.07
2019-05-06T16:10:13.293Z,10.10
2019-05-06T16:12:41.833Z,9.33
2019-05-06T16:15:12.985Z,9.97
2019-05-06T16:17:42.663Z,9.73
2019-05-06T16:20:12.986Z,9.80
2019-05-06T16:22:44.544Z,10.40
2019-05-06T16:25:14.533Z,9.70
2019-05-06T16:27:44.185Z,9.47
2019-05-06T16:30:14.992Z,9.83
2019-05-06T16:32:44.424Z,10.50
2019-05-06T16:35:14.365Z,9.70
2019-05-06T16:37:42.897Z,9.80
2019-05-06T16:40:12.440Z,10.60
2019-05-06T16:42:42.587Z,10.23
2019-05-06T16:45:12.706Z,10.27
2019-05-06T16:47:44.706Z,9.93
2019-05-06T16:50:19.044Z,9.90
2019-05-06T16:52:47.705Z,10.10
2019-05-06T16:55:24.518Z,10.53
2019-05-06T16:57:54.858Z,10.77
2019-05-06T17:00:25.328Z,10.63
2019-05-06T17:03:04.508Z,10.17
2019-05-06T17:05:34.678Z,10.30
2019-05-06T17:08:03.219Z,10.17
2019-05-06T17:10:32.677Z,9.40
2019-05-06T17:13:02.933Z,11.27
2019-05-06T17:15:32.608Z,9.77
2019-05-06T17:18:03.168Z,9.97
2019-05-06T17:20:32.679Z,10.27
2019-05-06T17:23:02.937Z,9.87
2019-05-06T17:25:32.913Z,9.50
2019-05-06T17:28:03.487Z,9.80
2019-05-06T17:30:43.075Z,9.73
2019-05-06T17:33:29.637Z,10.10
2019-05-06T17:35:58.203Z,11.17
2019-05-06T17:38:28.262Z,9.93
2019-05-06T17:40:56.720Z,10.17
2019-05-06T17:43:25.173Z,10.50
2019-05-06T17:46:01.882Z,10.20
2019-05-06T17:48:30.016Z,10.47
2019-05-06T17:51:16.615Z,10.33
2019-05-06T17:53:52.062Z,10.50
2019-05-06T17:56:22.085Z,10.67
2019-05-06T17:58:50.386Z,10.40
2019-05-06T18:01:35.734Z,10.70
2019-05-06T18:04:04.692Z,10.50
2019-05-06T18:06:33.583Z,10.20
2019-05-06T18:09:02.639Z,10.23
2019-05-06T18:11:33.272Z,10.80
2019-05-06T18:14:03.779Z,10.33
2019-05-06T18:16:33.142Z,9.97
2019-05-06T18:19:03.082Z,9.57
2019-05-06T18:21:31.865Z,9.50
2019-05-06T18:24:00.226Z,9.30
2019-05-06T18:26:29.168Z,9.30
2019-05-06T18:28:58.541Z,9.13
2019-05-06T18:31:27.128Z,8.80
2019-05-06T18:33:55.500Z,9.50
2019-05-06T18:36:24.046Z,9.13
2019-05-06T18:38:52.760Z,8.80
2019-05-06T18:41:23.392Z,9.00
2019-05-06T18:43:53.407Z,8.90
2019-05-06T18:46:21.596Z,8.83
2019-05-06T18:48:52.355Z,8.87
2019-05-06T18:51:22.375Z,8.23
2019-05-06T18:53:52.399Z,8.40
2019-05-06T18:56:22.378Z,8.00
2019-05-06T18:58:53.071Z,9.17
2019-05-06T19:01:23.197Z,10.23
2019-05-06T19:04:03.389Z,8.57
2019-05-06T19:06:32.698Z,8.77
2019-05-06T19:09:19.265Z,8.40
2019-05-06T19:11:48.128Z,8.30
2019-05-06T19:14:16.551Z,8.17
2019-05-06T19:16:49.749Z,8.73
2019-05-06T19:19:15.108Z,8.73
2019-05-06T19:21:43.807Z,8.30
2019-05-06T19:24:12.401Z,8.40
2019-05-06T19:26:42.790Z,8.77
2019-05-06T19:29:12.249Z,8.67
2019-05-06T19:31:44.765Z,9.07
2019-05-06T19:34:12.956Z,8.50
2019-05-06T19:36:42.215Z,8.43
2019-05-06T19:39:12.661Z,8.10
2019-05-06T19:41:41.019Z,8.53
2019-05-06T19:44:09.531Z,8.80
2019-05-06T19:46:37.994Z,8.40
2019-05-06T19:49:06.490Z,8.47
2019-05-06T19:51:35.320Z,8.30
2019-05-06T19:54:03.759Z,8.40
2019-05-06T19:56:32.243Z,8.70
2019-05-06T19:59:02.086Z,8.60
2019-05-06T20:01:32.351Z,8.97
2019-05-06T20:04:02.582Z,9.93
2019-05-06T20:06:41.754Z,8.60
2019-05-06T20:09:27.514Z,9.00
2019-05-06T20:11:57.659Z,8.63
2019-05-06T20:14:26.377Z,10.30
2019-05-06T20:16:54.730Z,8.90
2019-05-06T20:19:30.716Z,8.60
2019-05-06T20:21:53.287Z,8.87
2019-05-06T20:24:22.493Z,9.27
2019-05-06T20:26:52.726Z,8.90
2019-05-06T20:29:22.402Z,8.43
2019-05-06T20:31:53.319Z,9.23
2019-05-06T20:34:22.381Z,9.97
2019-05-06T20:36:52.863Z,8.90
2019-05-06T20:39:23.050Z,9.47
2019-05-06T20:41:51.419Z,9.00
2019-05-06T20:44:19.766Z,8.93
2019-05-06T20:46:48.527Z,9.00
2019-05-06T20:49:16.924Z,9.50
2019-05-06T20:51:45.360Z,9.27
2019-05-06T20:54:13.750Z,9.07
2019-05-06T20:56:42.294Z,8.60
2019-05-06T20:59:12.122Z,9.10
2019-05-06T21:01:42.500Z,9.37
2019-05-06T21:04:13.121Z,9.40
2019-05-06T21:06:42.599Z,8.80
2019-05-06T21:09:12.441Z,10.40
2019-05-06T21:11:42.156Z,9.13
2019-05-06T21:14:13.039Z,9.43
2019-05-06T21:16:42.268Z,8.80
2019-05-06T21:19:12.622Z,8.90
2019-05-06T21:21:42.987Z,8.93
2019-05-06T21:24:13.027Z,9.30
2019-05-06T21:26:42.875Z,9.33
2019-05-06T21:29:12.763Z,9.30
2019-05-06T21:31:42.245Z,9.10
2019-05-06T21:34:12.869Z,9.10
2019-05-06T21:36:42.255Z,9.40
2019-05-06T21:39:12.919Z,9.43
2019-05-06T21:41:42.745Z,9.33
2019-05-06T21:44:13.254Z,9.60
2019-05-06T21:46:42.966Z,9.50
2019-05-06T21:49:12.252Z,9.93
2019-05-06T21:51:42.564Z,9.97
2019-05-06T21:54:12.551Z,9.30
2019-05-06T21:56:42.442Z,10.10
2019-05-06T21:59:12.878Z,9.70
2019-05-06T22:01:42.909Z,9.43
2019-05-06T22:04:12.839Z,10.10
2019-05-06T22:06:42.766Z,9.50
2019-05-06T22:09:12.585Z,10.00
2019-05-06T22:11:42.330Z,9.53
2019-05-06T22:14:12.249Z,10.10
2019-05-06T22:16:41.007Z,9.40
2019-05-06T22:19:11.909Z,10.20
2019-05-06T22:21:42.577Z,10.27
2019-05-06T22:24:12.218Z,9.60
2019-05-06T22:26:43.202Z,10.03
2019-05-06T22:29:12.773Z,9.90
2019-05-06T22:31:42.314Z,9.77
2019-05-06T22:34:10.837Z,9.87
2019-05-06T22:36:39.182Z,10.53
2019-05-06T22:39:07.725Z,10.03
2019-05-06T22:41:36.123Z,10.03
2019-05-06T22:44:13.105Z,9.80
2019-05-06T22:46:34.739Z,10.33
2019-05-06T22:49:03.757Z,9.97
2019-05-06T22:51:32.529Z,10.10
2019-05-06T22:54:03.182Z,9.87
2019-05-06T22:56:32.506Z,9.93
2019-05-06T22:59:03.346Z,9.93
2019-05-06T23:01:49.659Z,10.10
2019-05-06T23:04:21.701Z,10.17
2019-05-06T23:06:50.177Z,10.20
2019-05-06T23:09:18.953Z,9.50
2019-05-06T23:11:47.551Z,9.77
2019-05-06T23:14:28.071Z,10.10
2019-05-06T23:16:46.454Z,9.63
2019-05-06T23:19:15.244Z,10.70
2019-05-06T23:21:43.722Z,10.50
2019-05-06T23:24:13.158Z,10.23
2019-05-06T23:26:41.699Z,9.87
2019-05-06T23:29:12.772Z,10.10
2019-05-06T23:31:42.463Z,9.77
2019-05-06T23:34:12.535Z,9.60
2019-05-06T23:36:59.215Z,9.70
2019-05-06T23:40:05.809Z,9.97
2019-05-06T23:43:12.622Z,9.73
2019-05-06T23:46:17.519Z,10.57
2019-05-06T23:49:22.729Z,10.00
2019-05-06T23:52:28.083Z,11.30
2019-05-06T23:55:32.909Z,11.00
2019-05-06T23:58:00.278Z,10.80
